createdAt,value
2018-12-18T00:01:14.245Z,45.80
2018-12-18T00:03:42.984Z,43.75
2018-12-18T00:06:11.790Z,48.75
2018-12-18T00:08:40.468Z,48.90
2018-12-18T00:11:10.634Z,43.65
2018-12-18T00:13:39.342Z,45.73
2018-12-18T00:16:08.094Z,42.93
2018-12-18T00:18:36.844Z,41.73
2018-12-18T00:21:05.581Z,39.63
2018-12-18T00:23:34.269Z,43.45
2018-12-18T00:26:03.029Z,43.85
2018-12-18T00:28:31.753Z,38.33
2018-12-18T00:31:00.464Z,42.93
2018-12-18T00:33:29.185Z,39.63
2018-12-18T00:35:57.908Z,38.78
2018-12-18T00:38:26.578Z,39.42
2018-12-18T00:40:55.337Z,38.13
2018-12-18T00:43:24.132Z,36.25
2018-12-18T00:45:53.254Z,38.25
2018-12-18T00:48:21.967Z,37.70
2018-12-18T00:50:50.694Z,35.30
2018-12-18T00:53:19.469Z,38.88
2018-12-18T00:55:48.187Z,34.53
2018-12-18T00:58:16.942Z,35.25
2018-12-18T01:00:45.662Z,40.10
2018-12-18T01:03:14.430Z,40.28
2018-12-18T01:05:43.091Z,35.50
2018-12-18T01:08:11.859Z,35.92
2018-12-18T01:10:40.589Z,37.93
2018-12-18T01:13:09.356Z,33.75
2018-12-18T01:15:38.146Z,38.40
2018-12-18T01:18:06.865Z,39.85
2018-12-18T01:20:35.543Z,38.48
2018-12-18T01:23:04.295Z,36.60
2018-12-18T01:25:33.072Z,36.45
2018-12-18T01:28:01.777Z,36.20
2018-12-18T01:30:30.496Z,33.33
2018-12-18T01:32:59.245Z,36.03
2018-12-18T01:35:27.908Z,34.73
2018-12-18T01:37:56.612Z,33.28
2018-12-18T01:40:25.433Z,35.08
2018-12-18T01:42:54.178Z,37.55
2018-12-18T01:45:23.164Z,34.00
2018-12-18T01:47:51.929Z,33.53
2018-12-18T01:50:20.625Z,36.98
2018-12-18T01:52:49.339Z,33.50
2018-12-18T01:55:18.052Z,37.58
2018-12-18T01:57:46.759Z,36.30
2018-12-18T02:00:16.376Z,33.98
2018-12-18T02:02:45.132Z,35.52
2018-12-18T02:05:13.845Z,34.63
2018-12-18T02:07:42.575Z,38.40
2018-12-18T02:10:11.325Z,30.40
2018-12-18T02:12:40.023Z,36.98
2018-12-18T02:15:08.702Z,31.70
2018-12-18T02:17:37.713Z,34.05
2018-12-18T02:20:07.532Z,34.18
2018-12-18T02:22:36.239Z,33.08
2018-12-18T02:25:06.069Z,34.78
2018-12-18T02:27:34.758Z,38.45
2018-12-18T02:30:03.470Z,33.95
2018-12-18T02:32:32.165Z,34.35
2018-12-18T02:35:00.902Z,33.08
2018-12-18T02:37:29.627Z,29.30
2018-12-18T02:39:58.304Z,33.60
2018-12-18T02:42:27.008Z,33.78
2018-12-18T02:44:55.719Z,34.15
2018-12-18T02:47:24.442Z,33.25
2018-12-18T02:49:53.142Z,34.03
2018-12-18T02:52:21.865Z,36.88
2018-12-18T02:54:50.600Z,34.15
2018-12-18T02:57:19.323Z,31.45
2018-12-18T02:59:48.102Z,35.15
2018-12-18T03:02:16.843Z,33.05
2018-12-18T03:04:45.573Z,37.28
2018-12-18T03:07:14.404Z,32.10
2018-12-18T03:09:43.104Z,32.50
2018-12-18T03:12:11.840Z,38.73
2018-12-18T03:14:40.537Z,33.58
2018-12-18T03:17:09.527Z,38.15
2018-12-18T03:19:38.484Z,31.17
2018-12-18T03:22:07.164Z,35.10
2018-12-18T03:24:35.902Z,33.83
2018-12-18T03:27:04.588Z,31.77
2018-12-18T03:29:33.334Z,35.73
2018-12-18T03:32:03.724Z,35.55
2018-12-18T03:34:32.439Z,34.00
2018-12-18T03:37:01.153Z,33.85
2018-12-18T03:39:29.831Z,39.15
2018-12-18T03:41:58.543Z,36.05
2018-12-18T03:44:27.323Z,38.33
2018-12-18T03:46:56.079Z,37.83
2018-12-18T03:49:24.812Z,34.60
2018-12-18T03:51:53.554Z,37.10
2018-12-18T03:54:22.472Z,38.42
2018-12-18T03:56:51.247Z,34.63
2018-12-18T03:59:19.972Z,36.17
2018-12-18T04:01:48.678Z,34.53
2018-12-18T04:04:17.361Z,37.83
2018-12-18T04:06:46.094Z,38.80
2018-12-18T04:09:14.844Z,36.90
2018-12-18T04:14:50.341Z,37.20
2018-12-18T04:17:19.316Z,42.58
2018-12-18T04:19:48.027Z,41.08
2018-12-18T04:22:16.783Z,38.98
2018-12-18T04:24:45.461Z,33.42
2018-12-18T04:27:14.144Z,37.88
2018-12-18T04:29:43.380Z,39.90
2018-12-18T04:32:12.083Z,41.53
2018-12-18T04:34:43.169Z,41.02
2018-12-18T04:37:11.439Z,47.75
2018-12-18T04:39:40.154Z,51.48
2018-12-18T04:42:08.857Z,44.08
2018-12-18T04:44:37.524Z,43.63
2018-12-18T04:47:06.251Z,39.27
2018-12-18T04:49:35.101Z,40.67
2018-12-18T04:52:04.123Z,39.92
2018-12-18T04:54:32.795Z,41.63
2018-12-18T04:57:01.500Z,43.95
2018-12-18T04:59:30.215Z,42.25
2018-12-18T05:01:59.064Z,41.68
2018-12-18T05:04:27.778Z,44.20
2018-12-18T05:06:56.570Z,42.88
2018-12-18T05:09:25.324Z,42.35
2018-12-18T05:11:54.050Z,47.40
2018-12-18T05:14:22.957Z,43.08
2018-12-18T05:16:51.886Z,40.88
2018-12-18T05:19:20.664Z,80.70
2018-12-18T05:21:49.364Z,40.17
2018-12-18T05:24:18.077Z,43.08
2018-12-18T05:26:46.756Z,42.88
2018-12-18T05:29:15.547Z,39.88
2018-12-18T05:31:44.262Z,40.12
2018-12-18T05:34:12.982Z,47.53
2018-12-18T05:36:41.694Z,50.55
2018-12-18T05:39:10.421Z,47.23
2018-12-18T05:41:39.255Z,47.10
2018-12-18T05:44:08.921Z,48.70
2018-12-18T05:46:37.706Z,50.52
2018-12-18T05:49:06.416Z,40.58
2018-12-18T05:51:35.154Z,44.75
2018-12-18T05:54:03.949Z,43.68
2018-12-18T05:56:32.676Z,44.90
2018-12-18T05:59:01.357Z,47.65
2018-12-18T06:01:30.695Z,45.52
2018-12-18T06:03:59.486Z,47.27
2018-12-18T06:06:28.210Z,46.40
2018-12-18T06:08:57.021Z,49.93
2018-12-18T06:11:25.802Z,47.83
2018-12-18T06:13:54.468Z,53.35
2018-12-18T06:16:23.168Z,44.93
2018-12-18T06:18:51.951Z,46.23
2018-12-18T06:21:20.712Z,47.05
2018-12-18T06:23:49.420Z,49.48
2018-12-18T06:26:18.137Z,43.05
2018-12-18T06:28:46.955Z,52.20
2018-12-18T06:31:15.668Z,49.67
2018-12-18T06:33:44.375Z,49.88
2018-12-18T06:36:13.111Z,49.63
2018-12-18T06:38:41.780Z,47.15
2018-12-18T06:41:10.517Z,49.48
2018-12-18T06:43:39.184Z,46.58
2018-12-18T06:46:07.930Z,48.20
2018-12-18T06:48:36.641Z,43.73
2018-12-18T06:51:05.347Z,49.67
2018-12-18T06:53:34.098Z,50.50
2018-12-18T06:56:02.858Z,45.35
2018-12-18T06:58:31.625Z,43.00
2018-12-18T07:01:01.425Z,48.38
2018-12-18T07:03:30.441Z,49.45
2018-12-18T07:05:59.165Z,48.23
2018-12-18T07:08:27.863Z,41.20
2018-12-18T07:10:57.798Z,47.80
2018-12-18T07:13:26.557Z,45.60
2018-12-18T07:15:55.358Z,46.00
2018-12-18T07:18:24.069Z,42.67
2018-12-18T07:20:52.816Z,42.62
2018-12-18T07:23:21.663Z,44.42
2018-12-18T07:25:50.378Z,43.20
2018-12-18T07:28:19.114Z,45.30
2018-12-18T07:30:47.788Z,44.13
2018-12-18T07:33:16.570Z,40.92
2018-12-18T07:35:45.249Z,51.73
2018-12-18T07:38:13.974Z,46.77
2018-12-18T07:40:42.671Z,49.45
2018-12-18T07:43:11.361Z,48.20
2018-12-18T07:45:40.172Z,45.17
2018-12-18T07:48:08.978Z,45.65
2018-12-18T07:50:37.689Z,45.35
2018-12-18T07:53:06.401Z,51.50
2018-12-18T07:55:35.112Z,41.95
2018-12-18T07:58:03.919Z,42.73
2018-12-18T08:00:32.629Z,40.50
2018-12-18T08:03:02.175Z,39.40
2018-12-18T08:05:30.856Z,47.25
2018-12-18T08:07:59.565Z,46.55
2018-12-18T08:10:28.283Z,43.70
2018-12-18T08:12:57.150Z,44.25
2018-12-18T08:15:25.904Z,44.42
2018-12-18T08:17:54.599Z,42.50
2018-12-18T08:20:23.264Z,44.93
2018-12-18T08:22:52.014Z,42.30
2018-12-18T08:25:20.739Z,44.58
2018-12-18T08:27:49.494Z,42.78
2018-12-18T08:30:19.140Z,40.78
2018-12-18T08:32:47.801Z,44.33
2018-12-18T08:35:16.577Z,43.28
2018-12-18T08:37:45.291Z,46.83
2018-12-18T08:40:13.997Z,45.23
2018-12-18T08:42:42.692Z,45.80
2018-12-18T08:45:11.433Z,40.67
2018-12-18T08:47:40.114Z,41.30
2018-12-18T08:50:08.874Z,38.02
2018-12-18T08:52:37.592Z,37.95
2018-12-18T08:55:06.828Z,39.88
2018-12-18T08:57:35.532Z,42.43
2018-12-18T09:00:06.169Z,47.90
2018-12-18T09:02:34.945Z,43.10
2018-12-18T09:05:03.623Z,40.92
2018-12-18T09:07:32.332Z,40.33
2018-12-18T09:10:01.055Z,37.17
2018-12-18T09:12:29.818Z,38.30
2018-12-18T09:14:58.554Z,36.77
2018-12-18T09:17:32.767Z,47.67
2018-12-18T09:20:01.511Z,36.98
2018-12-18T09:22:30.913Z,42.65
2018-12-18T09:24:59.598Z,46.55
2018-12-18T09:27:28.530Z,44.70
2018-12-18T09:29:57.263Z,37.60
2018-12-18T09:32:25.962Z,38.48
2018-12-18T09:34:54.709Z,41.88
2018-12-18T09:37:23.421Z,40.60
2018-12-18T09:39:52.124Z,42.20
2018-12-18T09:42:26.387Z,39.27
2018-12-18T09:44:55.231Z,42.00
2018-12-18T09:47:23.942Z,37.60
2018-12-18T09:49:52.702Z,40.50
2018-12-18T09:52:21.364Z,50.58
2018-12-18T09:54:50.096Z,36.55
2018-12-18T09:57:24.199Z,41.10
2018-12-18T09:59:52.913Z,41.37
2018-12-18T10:02:21.647Z,40.03
2018-12-18T10:04:50.401Z,39.27
2018-12-18T10:07:19.215Z,41.50
2018-12-18T10:09:47.934Z,40.58
2018-12-18T10:12:18.324Z,38.75
2018-12-18T10:14:47.029Z,42.67
2018-12-18T10:17:15.732Z,35.08
2018-12-18T10:19:44.410Z,35.17
2018-12-18T10:22:13.134Z,35.48
2018-12-18T10:24:41.919Z,39.18
2018-12-18T10:27:10.625Z,40.05
2018-12-18T10:29:39.310Z,38.42
2018-12-18T10:32:08.046Z,33.90
2018-12-18T10:34:36.773Z,34.53
2018-12-18T10:37:05.529Z,37.65
2018-12-18T10:39:34.243Z,43.50
2018-12-18T10:42:02.944Z,36.03
2018-12-18T10:44:31.660Z,41.42
2018-12-18T10:47:00.357Z,39.67
2018-12-18T10:49:29.095Z,35.58
2018-12-18T10:51:57.868Z,33.78
2018-12-18T10:54:26.569Z,40.60
2018-12-18T10:56:55.409Z,38.95
2018-12-18T10:59:24.158Z,34.55
2018-12-18T11:01:54.561Z,38.08
2018-12-18T11:04:23.264Z,39.10
2018-12-18T11:06:52.019Z,32.17
2018-12-18T11:09:20.709Z,35.63
2018-12-18T11:11:49.462Z,32.98
2018-12-18T11:14:18.347Z,34.40
2018-12-18T11:16:47.046Z,38.53
2018-12-18T11:19:15.808Z,36.03
2018-12-18T11:21:44.489Z,36.55
2018-12-18T11:24:13.237Z,37.28
2018-12-18T11:26:41.987Z,35.17
2018-12-18T11:29:10.689Z,40.83
2018-12-18T11:31:39.702Z,33.33
2018-12-18T11:34:08.400Z,41.28
2018-12-18T11:36:37.114Z,48.78
2018-12-18T11:39:06.714Z,39.88
2018-12-18T11:41:35.376Z,36.10
2018-12-18T11:44:04.056Z,36.03
2018-12-18T11:46:32.780Z,32.88
2018-12-18T11:49:01.500Z,31.45
2018-12-18T11:51:30.224Z,32.70
2018-12-18T11:53:58.933Z,30.48
2018-12-18T11:56:27.673Z,26.00
2018-12-18T11:58:56.331Z,29.98
2018-12-18T12:01:25.013Z,36.40
2018-12-18T12:03:53.787Z,25.55
2018-12-18T12:06:23.125Z,27.87
2018-12-18T12:08:52.292Z,25.97
2018-12-18T12:11:21.041Z,26.95
2018-12-18T12:13:49.757Z,25.35
2018-12-18T12:16:18.456Z,26.57
2018-12-18T12:18:47.172Z,21.85
2018-12-18T12:21:15.836Z,26.77
2018-12-18T12:23:44.549Z,27.25
2018-12-18T12:26:18.634Z,29.72
2018-12-18T12:28:47.350Z,28.38
2018-12-18T12:31:16.074Z,27.40
2018-12-18T12:33:44.794Z,26.85
2018-12-18T12:36:13.493Z,29.23
2018-12-18T12:38:42.211Z,29.42
2018-12-18T12:41:10.949Z,29.25
2018-12-18T12:43:39.716Z,29.75
2018-12-18T12:46:08.373Z,29.45
2018-12-18T12:51:42.750Z,27.98
2018-12-18T12:54:11.600Z,28.62
2018-12-18T12:56:40.402Z,30.80
2018-12-18T12:59:09.189Z,32.60
2018-12-18T13:01:42.188Z,36.77
2018-12-18T13:04:08.627Z,29.25
2018-12-18T13:06:37.287Z,31.97
2018-12-18T13:09:07.264Z,34.95
2018-12-18T13:11:35.968Z,31.80
2018-12-18T13:14:04.768Z,34.67
2018-12-18T13:16:33.450Z,34.95
2018-12-18T13:19:02.189Z,32.50
2018-12-18T13:21:30.924Z,32.03
2018-12-18T13:23:59.672Z,32.75
2018-12-18T13:26:28.393Z,33.88
2018-12-18T13:28:57.097Z,36.17
2018-12-18T13:31:25.833Z,35.65
2018-12-18T13:33:54.745Z,31.15
2018-12-18T13:36:23.494Z,32.60
2018-12-18T13:38:52.239Z,33.33
2018-12-18T13:41:21.039Z,35.90
2018-12-18T13:43:49.756Z,34.85
2018-12-18T13:46:18.433Z,40.15
2018-12-18T13:48:47.137Z,29.90
2018-12-18T13:51:15.929Z,38.08
2018-12-18T13:53:44.670Z,39.83
2018-12-18T13:56:13.394Z,33.50
2018-12-18T13:58:42.211Z,40.75
2018-12-18T14:01:10.979Z,36.65
2018-12-18T14:03:39.712Z,34.40
2018-12-18T14:06:08.380Z,35.85
2018-12-18T14:08:37.098Z,33.42
2018-12-18T14:11:05.763Z,31.65
2018-12-18T14:13:34.476Z,37.53
2018-12-18T14:16:03.164Z,37.58
2018-12-18T14:18:31.900Z,42.05
2018-12-18T14:21:00.669Z,38.15
2018-12-18T14:23:29.365Z,41.25
2018-12-18T14:25:58.114Z,37.30
2018-12-18T14:28:26.856Z,43.80
2018-12-18T14:30:55.558Z,44.30
2018-12-18T14:33:24.341Z,35.30
2018-12-18T14:35:55.447Z,41.15
2018-12-18T14:38:24.151Z,32.75
2018-12-18T14:40:52.849Z,34.03
2018-12-18T14:43:21.572Z,35.60
2018-12-18T14:45:50.363Z,32.90
2018-12-18T14:48:19.031Z,33.67
2018-12-18T14:50:47.767Z,32.93
2018-12-18T14:53:16.619Z,33.65
2018-12-18T14:55:45.398Z,34.25
2018-12-18T14:58:14.147Z,31.93
2018-12-18T15:00:42.856Z,33.73
2018-12-18T15:03:11.635Z,38.00
2018-12-18T15:05:40.365Z,31.17
2018-12-18T15:08:09.051Z,30.35
2018-12-18T15:10:37.984Z,27.93
2018-12-18T15:13:06.795Z,32.88
2018-12-18T15:15:35.517Z,29.80
2018-12-18T15:18:04.270Z,34.98
2018-12-18T15:20:32.980Z,34.55
2018-12-18T15:23:01.734Z,33.63
2018-12-18T15:25:31.415Z,32.73
2018-12-18T15:28:00.130Z,30.17
2018-12-18T15:30:28.825Z,33.30
2018-12-18T15:32:57.563Z,32.15
2018-12-18T15:35:26.799Z,35.55
2018-12-18T15:37:55.518Z,30.37
2018-12-18T15:40:24.425Z,28.62
2018-12-18T15:42:53.158Z,30.80
2018-12-18T15:45:21.836Z,33.15
2018-12-18T15:47:50.615Z,36.53
2018-12-18T15:50:19.291Z,36.53
2018-12-18T15:52:48.052Z,35.83
2018-12-18T15:55:16.817Z,36.08
2018-12-18T15:57:45.565Z,35.60
2018-12-18T16:00:14.396Z,41.00
2018-12-18T16:02:43.195Z,45.50
2018-12-18T16:05:11.916Z,41.60
2018-12-18T16:07:40.625Z,38.80
2018-12-18T16:10:09.303Z,48.02
2018-12-18T16:12:38.008Z,52.48
2018-12-18T16:15:08.315Z,40.85
2018-12-18T16:17:37.071Z,44.10
2018-12-18T16:20:08.649Z,47.23
2018-12-18T16:22:37.426Z,47.48
2018-12-18T16:25:06.815Z,47.67
2018-12-18T16:27:35.573Z,46.95
2018-12-18T16:30:05.500Z,49.90
2018-12-18T16:32:34.204Z,50.17
2018-12-18T16:35:02.876Z,51.35
2018-12-18T16:37:31.807Z,51.37
2018-12-18T16:40:00.568Z,46.33
2018-12-18T16:42:29.401Z,43.55
2018-12-18T16:44:58.169Z,52.08
2018-12-18T16:47:27.076Z,53.20
2018-12-18T16:49:55.769Z,46.63
2018-12-18T16:52:24.520Z,43.98
2018-12-18T16:54:53.324Z,46.10
2018-12-18T16:57:22.281Z,53.52
2018-12-18T16:59:50.952Z,46.45
2018-12-18T17:02:20.230Z,51.15
2018-12-18T17:04:48.957Z,48.25
2018-12-18T17:07:17.752Z,47.70
2018-12-18T17:09:46.546Z,48.00
2018-12-18T17:12:15.413Z,40.52
2018-12-18T17:14:44.396Z,42.25
2018-12-18T17:17:13.071Z,51.65
2018-12-18T17:19:41.828Z,43.63
2018-12-18T17:22:10.554Z,47.58
2018-12-18T17:24:39.310Z,48.42
2018-12-18T17:27:07.993Z,53.50
2018-12-18T17:29:36.702Z,57.25
2018-12-18T17:32:05.408Z,47.53
2018-12-18T17:34:34.200Z,48.65
2018-12-18T17:37:02.904Z,45.25
2018-12-18T17:39:31.679Z,40.10
2018-12-18T17:42:00.410Z,49.15
2018-12-18T17:44:29.150Z,44.25
2018-12-18T17:46:58.025Z,45.98
2018-12-18T17:49:26.778Z,49.65
2018-12-18T17:51:55.518Z,42.25
2018-12-18T17:54:24.223Z,56.02
2018-12-18T17:56:52.980Z,80.92
2018-12-18T17:59:21.803Z,54.33
2018-12-18T18:01:50.606Z,44.83
2018-12-18T18:04:19.304Z,47.05
2018-12-18T18:06:48.053Z,44.45
2018-12-18T18:09:16.724Z,41.48
2018-12-18T18:11:45.564Z,53.38
2018-12-18T18:14:14.341Z,51.68
2018-12-18T18:16:43.145Z,45.10
2018-12-18T18:19:11.869Z,41.98
2018-12-18T18:21:40.620Z,43.52
2018-12-18T18:24:09.337Z,45.52
2018-12-18T18:26:38.111Z,42.33
2018-12-18T18:29:06.881Z,42.40
2018-12-18T18:31:35.650Z,51.98
2018-12-18T18:34:04.599Z,42.98
2018-12-18T18:36:33.501Z,49.60
2018-12-18T18:39:02.293Z,50.52
2018-12-18T18:41:30.956Z,54.63
2018-12-18T18:43:59.678Z,48.20
2018-12-18T18:46:28.384Z,55.65
2018-12-18T18:48:57.081Z,49.40
2018-12-18T18:51:25.753Z,49.25
2018-12-18T18:53:54.488Z,46.05
2018-12-18T18:56:23.432Z,48.15
2018-12-18T18:58:52.190Z,52.08
2018-12-18T19:01:20.932Z,43.87
2018-12-18T19:03:49.641Z,48.55
2018-12-18T19:06:18.359Z,65.90
2018-12-18T19:08:47.078Z,46.13
2018-12-18T19:11:15.807Z,47.88
2018-12-18T19:13:44.515Z,46.63
2018-12-18T19:16:13.214Z,44.45
2018-12-18T19:18:41.964Z,42.27
2018-12-18T19:21:10.684Z,43.38
2018-12-18T19:23:39.438Z,81.10
2018-12-18T19:26:08.300Z,46.68
2018-12-18T19:28:37.054Z,47.62
2018-12-18T19:31:05.748Z,44.53
2018-12-18T19:33:36.935Z,47.33
2018-12-18T19:36:05.223Z,51.33
2018-12-18T19:38:33.940Z,45.88
2018-12-18T19:41:02.686Z,51.65
2018-12-18T19:43:31.410Z,51.35
2018-12-18T19:46:00.105Z,53.20
2018-12-18T19:48:28.790Z,46.53
2018-12-18T19:50:57.578Z,48.33
2018-12-18T19:53:26.299Z,49.15
2018-12-18T19:55:55.002Z,46.98
2018-12-18T19:58:23.699Z,55.48
2018-12-18T20:00:52.447Z,43.52
2018-12-18T20:03:21.164Z,51.75
2018-12-18T20:05:49.815Z,53.15
2018-12-18T20:08:18.522Z,48.10
2018-12-18T20:10:47.253Z,46.75
2018-12-18T20:13:15.989Z,52.83
2018-12-18T20:15:44.961Z,51.23
2018-12-18T20:18:13.706Z,48.90
2018-12-18T20:20:42.442Z,54.27
2018-12-18T20:23:11.141Z,53.73
2018-12-18T20:25:39.902Z,56.13
2018-12-18T20:28:08.634Z,48.08
2018-12-18T20:30:37.341Z,48.10
2018-12-18T20:33:06.175Z,48.63
2018-12-18T20:35:34.862Z,51.95
2018-12-18T20:38:03.587Z,44.05
2018-12-18T20:40:32.309Z,54.85
2018-12-18T20:43:01.035Z,49.95
2018-12-18T20:45:29.732Z,53.10
2018-12-18T20:47:58.965Z,49.98
2018-12-18T20:50:27.674Z,47.13
2018-12-18T20:52:56.425Z,45.60
2018-12-18T20:55:25.141Z,58.65
2018-12-18T20:57:54.038Z,52.08
2018-12-18T21:00:22.773Z,48.58
2018-12-18T21:02:51.757Z,54.83
2018-12-18T21:05:20.552Z,51.98
2018-12-18T21:07:49.303Z,55.10
2018-12-18T21:10:17.975Z,49.77
2018-12-18T21:12:46.739Z,55.75
2018-12-18T21:15:15.416Z,147.47
2018-12-18T21:17:44.154Z,67.37
2018-12-18T21:20:12.881Z,49.77
2018-12-18T21:22:41.644Z,55.75
2018-12-18T21:25:10.370Z,46.23
2018-12-18T21:27:39.072Z,49.10
2018-12-18T21:30:09.428Z,48.87
2018-12-18T21:32:38.108Z,48.28
2018-12-18T21:35:06.914Z,42.38
2018-12-18T21:37:35.638Z,42.78
2018-12-18T21:40:05.920Z,48.00
2018-12-18T21:42:34.616Z,47.27
2018-12-18T21:45:03.338Z,48.48
2018-12-18T21:47:32.083Z,46.02
2018-12-18T21:50:00.771Z,44.63
2018-12-18T21:52:29.479Z,52.98
2018-12-18T21:54:58.180Z,52.30
2018-12-18T21:57:26.934Z,46.48
2018-12-18T21:59:55.694Z,51.10
2018-12-18T22:02:24.441Z,49.50
2018-12-18T22:04:53.148Z,49.55
2018-12-18T22:07:22.051Z,44.58
2018-12-18T22:09:50.956Z,56.53
2018-12-18T22:12:19.671Z,51.50
2018-12-18T22:14:48.426Z,46.13
2018-12-18T22:17:17.170Z,51.58
2018-12-18T22:19:45.861Z,50.28
2018-12-18T22:22:14.624Z,48.30
2018-12-18T22:24:43.337Z,53.60
2018-12-18T22:27:12.065Z,52.62
2018-12-18T22:29:40.764Z,48.83
2018-12-18T22:32:09.476Z,47.70
2018-12-18T22:34:38.152Z,50.88
2018-12-18T22:37:06.862Z,56.63
2018-12-18T22:39:35.630Z,59.88
2018-12-18T22:42:04.409Z,51.18
2018-12-18T22:44:33.142Z,51.75
2018-12-18T22:47:01.884Z,66.30
2018-12-18T22:49:30.561Z,59.03
2018-12-18T22:51:59.276Z,51.92
2018-12-18T22:54:27.984Z,57.30
2018-12-18T22:56:56.676Z,55.92
2018-12-18T22:59:25.390Z,61.88
2018-12-18T23:01:54.141Z,56.95
2018-12-18T23:04:22.874Z,50.17
2018-12-18T23:06:51.638Z,57.55
2018-12-18T23:09:20.350Z,59.65
2018-12-18T23:11:49.064Z,64.77
2018-12-18T23:14:17.774Z,61.98
2018-12-18T23:16:46.466Z,58.70
2018-12-18T23:19:15.322Z,63.90
2018-12-18T23:21:43.993Z,65.92
2018-12-18T23:24:12.730Z,57.48
2018-12-18T23:26:41.439Z,60.12
2018-12-18T23:29:10.151Z,67.05
2018-12-18T23:31:38.891Z,58.92
2018-12-18T23:34:07.641Z,58.00
2018-12-18T23:36:36.348Z,65.12
2018-12-18T23:39:06.977Z,65.47
2018-12-18T23:41:36.594Z,67.27
2018-12-18T23:44:05.731Z,70.40
2018-12-18T23:46:34.513Z,66.07
2018-12-18T23:49:03.219Z,71.40
2018-12-18T23:51:31.956Z,72.50
2018-12-18T23:54:00.681Z,61.88
2018-12-18T23:56:29.356Z,65.60
2018-12-18T23:58:58.082Z,72.87
